sensor_id;sensor_type;location;lat;lon;timestamp;temperature;humidity
42147;DHT22;27815;43.410;11.852;2023-03-20T00:00:56;12.50;80.70
42147;DHT22;27815;43.410;11.852;2023-03-20T00:04:59;12.60;80.60
42147;DHT22;27815;43.410;11.852;2023-03-20T00:09:02;12.50;80.50
42147;DHT22;27815;43.410;11.852;2023-03-20T00:13:18;12.50;80.50
42147;DHT22;27815;43.410;11.852;2023-03-20T00:17:25;12.50;80.70
42147;DHT22;27815;43.410;11.852;2023-03-20T00:21:28;12.50;81.00
42147;DHT22;27815;43.410;11.852;2023-03-20T00:25:35;12.40;81.10
42147;DHT22;27815;43.410;11.852;2023-03-20T00:29:48;12.40;81.20
42147;DHT22;27815;43.410;11.852;2023-03-20T00:33:52;12.40;81.20
42147;DHT22;27815;43.410;11.852;2023-03-20T00:37:56;12.30;81.30
42147;DHT22;27815;43.410;11.852;2023-03-20T00:42:01;12.40;81.20
42147;DHT22;27815;43.410;11.852;2023-03-20T00:46:06;12.40;81.10
42147;DHT22;27815;43.410;11.852;2023-03-20T00:50:19;12.30;81.20
42147;DHT22;27815;43.410;11.852;2023-03-20T00:54:24;12.40;81.10
42147;DHT22;27815;43.410;11.852;2023-03-20T00:58:28;12.40;81.00
42147;DHT22;27815;43.410;11.852;2023-03-20T01:02:46;12.40;81.00
42147;DHT22;27815;43.410;11.852;2023-03-20T01:07:03;12.40;81.00
42147;DHT22;27815;43.410;11.852;2023-03-20T01:11:12;12.30;80.90
42147;DHT22;27815;43.410;11.852;2023-03-20T01:15:29;12.20;81.00
42147;DHT22;27815;43.410;11.852;2023-03-20T01:19:35;12.20;81.10
42147;DHT22;27815;43.410;11.852;2023-03-20T01:23:38;12.10;81.20
42147;DHT22;27815;43.410;11.852;2023-03-20T01:27:47;12.20;81.20
42147;DHT22;27815;43.410;11.852;2023-03-20T01:31:51;12.20;81.30
42147;DHT22;27815;43.410;11.852;2023-03-20T01:35:56;12.20;81.10
42147;DHT22;27815;43.410;11.852;2023-03-20T01:39:59;12.20;80.90
42147;DHT22;27815;43.410;11.852;2023-03-20T01:44:15;12.10;80.90
42147;DHT22;27815;43.410;11.852;2023-03-20T01:48:20;12.10;80.80
42147;DHT22;27815;43.410;11.852;2023-03-20T01:52:40;12.10;80.70
42147;DHT22;27815;43.410;11.852;2023-03-20T01:56:45;12.10;80.60
42147;DHT22;27815;43.410;11.852;2023-03-20T02:00:49;12.00;80.50
42147;DHT22;27815;43.410;11.852;2023-03-20T02:04:55;12.00;80.50
42147;DHT22;27815;43.410;11.852;2023-03-20T02:09:00;12.00;80.50
42147;DHT22;27815;43.410;11.852;2023-03-20T02:13:09;11.90;80.50
42147;DHT22;27815;43.410;11.852;2023-03-20T02:17:19;11.90;80.50
42147;DHT22;27815;43.410;11.852;2023-03-20T02:22:21;11.90;80.40
42147;DHT22;27815;43.410;11.852;2023-03-20T02:26:15;11.90;80.30
42147;DHT22;27815;43.410;11.852;2023-03-20T02:35:13;11.90;80.10
42147;DHT22;27815;43.410;11.852;2023-03-20T02:39:33;11.90;80.10
42147;DHT22;27815;43.410;11.852;2023-03-20T02:43:47;11.90;80.00
42147;DHT22;27815;43.410;11.852;2023-03-20T02:56:29;12.00;80.00
42147;DHT22;27815;43.410;11.852;2023-03-20T03:01:32;12.00;79.90
42147;DHT22;27815;43.410;11.852;2023-03-20T03:05:20;11.90;79.80
42147;DHT22;27815;43.410;11.852;2023-03-20T03:09:26;11.90;79.90
42147;DHT22;27815;43.410;11.852;2023-03-20T03:13:31;11.90;79.90
42147;DHT22;27815;43.410;11.852;2023-03-20T03:17:37;12.00;79.80
42147;DHT22;27815;43.410;11.852;2023-03-20T03:21:41;12.00;79.70
42147;DHT22;27815;43.410;11.852;2023-03-20T03:25:44;12.00;79.60
42147;DHT22;27815;43.410;11.852;2023-03-20T03:29:55;11.90;79.60
42147;DHT22;27815;43.410;11.852;2023-03-20T03:33:59;11.90;79.60
42147;DHT22;27815;43.410;11.852;2023-03-20T03:42:32;11.90;79.60
42147;DHT22;27815;43.410;11.852;2023-03-20T03:54:58;11.80;79.40
42147;DHT22;27815;43.410;11.852;2023-03-20T03:59:03;11.70;79.40
42147;DHT22;27815;43.410;11.852;2023-03-20T04:03:09;11.60;79.60
42147;DHT22;27815;43.410;11.852;2023-03-20T04:07:13;11.60;79.80
42147;DHT22;27815;43.410;11.852;2023-03-20T04:11:17;11.70;79.90
42147;DHT22;27815;43.410;11.852;2023-03-20T04:15:22;11.80;80.30
42147;DHT22;27815;43.410;11.852;2023-03-20T04:19:25;11.80;80.10
42147;DHT22;27815;43.410;11.852;2023-03-20T04:23:28;11.90;79.90
42147;DHT22;27815;43.410;11.852;2023-03-20T04:27:31;11.90;79.90
42147;DHT22;27815;43.410;11.852;2023-03-20T04:31:36;11.90;79.80
42147;DHT22;27815;43.410;11.852;2023-03-20T04:35:57;11.90;79.70
42147;DHT22;27815;43.410;11.852;2023-03-20T04:40:00;11.80;79.70
42147;DHT22;27815;43.410;11.852;2023-03-20T04:44:04;11.80;79.70
42147;DHT22;27815;43.410;11.852;2023-03-20T04:48:07;11.80;79.60
42147;DHT22;27815;43.410;11.852;2023-03-20T04:52:11;11.90;79.50
42147;DHT22;27815;43.410;11.852;2023-03-20T04:56:16;11.90;79.40
42147;DHT22;27815;43.410;11.852;2023-03-20T05:00:49;11.90;79.40
42147;DHT22;27815;43.410;11.852;2023-03-20T05:04:52;11.90;79.30
42147;DHT22;27815;43.410;11.852;2023-03-20T05:08:56;11.90;79.20
42147;DHT22;27815;43.410;11.852;2023-03-20T05:13:02;11.90;79.20
42147;DHT22;27815;43.410;11.852;2023-03-20T05:17:23;11.80;79.20
42147;DHT22;27815;43.410;11.852;2023-03-20T05:21:46;11.80;79.10
42147;DHT22;27815;43.410;11.852;2023-03-20T05:26:05;11.70;79.10
42147;DHT22;27815;43.410;11.852;2023-03-20T05:30:46;11.60;79.10
42147;DHT22;27815;43.410;11.852;2023-03-20T05:35:05;11.60;79.00
42147;DHT22;27815;43.410;11.852;2023-03-20T05:39:22;11.50;78.90
42147;DHT22;27815;43.410;11.852;2023-03-20T05:43:57;11.50;78.90
42147;DHT22;27815;43.410;11.852;2023-03-20T05:48:20;11.50;78.90
42147;DHT22;27815;43.410;11.852;2023-03-20T05:52:46;11.50;78.80
42147;DHT22;27815;43.410;11.852;2023-03-20T05:56:56;11.30;78.90
42147;DHT22;27815;43.410;11.852;2023-03-20T06:01:10;11.20;78.90
42147;DHT22;27815;43.410;11.852;2023-03-20T06:05:42;11.30;79.00
42147;DHT22;27815;43.410;11.852;2023-03-20T06:09:47;11.20;78.90
42147;DHT22;27815;43.410;11.852;2023-03-20T06:14:06;11.30;79.00
42147;DHT22;27815;43.410;11.852;2023-03-20T06:18:37;11.30;79.10
42147;DHT22;27815;43.410;11.852;2023-03-20T06:23:15;11.20;79.20
42147;DHT22;27815;43.410;11.852;2023-03-20T06:27:34;11.20;79.40
42147;DHT22;27815;43.410;11.852;2023-03-20T06:31:56;11.20;79.30
42147;DHT22;27815;43.410;11.852;2023-03-20T06:36:15;11.30;79.10
42147;DHT22;27815;43.410;11.852;2023-03-20T06:40:32;11.20;79.10
42147;DHT22;27815;43.410;11.852;2023-03-20T06:44:35;11.20;79.20
42147;DHT22;27815;43.410;11.852;2023-03-20T06:49:18;11.30;79.10
42147;DHT22;27815;43.410;11.852;2023-03-20T06:53:35;11.30;78.90
42147;DHT22;27815;43.410;11.852;2023-03-20T06:57:41;11.30;78.90
42147;DHT22;27815;43.410;11.852;2023-03-20T07:01:50;11.30;78.90
42147;DHT22;27815;43.410;11.852;2023-03-20T07:05:54;11.30;78.80
42147;DHT22;27815;43.410;11.852;2023-03-20T07:10:12;11.30;78.90
42147;DHT22;27815;43.410;11.852;2023-03-20T07:14:22;11.30;79.20
42147;DHT22;27815;43.410;11.852;2023-03-20T07:18:30;11.30;79.60
42147;DHT22;27815;43.410;11.852;2023-03-20T07:22:33;11.30;80.30
42147;DHT22;27815;43.410;11.852;2023-03-20T07:26:48;11.30;80.40
42147;DHT22;27815;43.410;11.852;2023-03-20T07:31:08;11.40;80.40
42147;DHT22;27815;43.410;11.852;2023-03-20T07:35:17;11.50;80.20
42147;DHT22;27815;43.410;11.852;2023-03-20T07:39:21;11.50;80.10
42147;DHT22;27815;43.410;11.852;2023-03-20T07:43:41;11.60;80.20
42147;DHT22;27815;43.410;11.852;2023-03-20T07:48:25;11.60;80.20
42147;DHT22;27815;43.410;11.852;2023-03-20T07:52:29;11.60;80.30
42147;DHT22;27815;43.410;11.852;2023-03-20T07:56:35;11.70;80.20
42147;DHT22;27815;43.410;11.852;2023-03-20T08:00:39;11.80;80.00
42147;DHT22;27815;43.410;11.852;2023-03-20T08:04:44;11.70;80.00
42147;DHT22;27815;43.410;11.852;2023-03-20T08:08:49;11.80;79.90
42147;DHT22;27815;43.410;11.852;2023-03-20T08:12:54;11.90;79.80
42147;DHT22;27815;43.410;11.852;2023-03-20T08:17:04;12.00;79.70
42147;DHT22;27815;43.410;11.852;2023-03-20T08:21:18;12.00;79.70
42147;DHT22;27815;43.410;11.852;2023-03-20T08:25:36;12.00;79.80
42147;DHT22;27815;43.410;11.852;2023-03-20T08:29:57;12.00;79.90
42147;DHT22;27815;43.410;11.852;2023-03-20T08:34:14;11.90;80.10
42147;DHT22;27815;43.410;11.852;2023-03-20T08:38:17;11.80;80.20
42147;DHT22;27815;43.410;11.852;2023-03-20T08:42:24;11.90;80.30
42147;DHT22;27815;43.410;11.852;2023-03-20T08:46:29;11.90;80.30
42147;DHT22;27815;43.410;11.852;2023-03-20T08:50:47;12.00;80.10
42147;DHT22;27815;43.410;11.852;2023-03-20T08:55:04;12.00;80.30
42147;DHT22;27815;43.410;11.852;2023-03-20T08:59:23;12.00;80.50
42147;DHT22;27815;43.410;11.852;2023-03-20T09:03:39;12.00;80.60
42147;DHT22;27815;43.410;11.852;2023-03-20T09:07:58;12.10;80.40
42147;DHT22;27815;43.410;11.852;2023-03-20T09:12:10;12.10;80.20
42147;DHT22;27815;43.410;11.852;2023-03-20T09:16:28;12.10;80.20
42147;DHT22;27815;43.410;11.852;2023-03-20T09:20:48;12.10;80.20
42147;DHT22;27815;43.410;11.852;2023-03-20T09:25:06;12.10;80.10
42147;DHT22;27815;43.410;11.852;2023-03-20T09:29:25;12.10;80.10
42147;DHT22;27815;43.410;11.852;2023-03-20T09:33:36;12.10;80.10
42147;DHT22;27815;43.410;11.852;2023-03-20T09:37:53;12.10;80.20
42147;DHT22;27815;43.410;11.852;2023-03-20T09:55:33;12.00;80.20
42147;DHT22;27815;43.410;11.852;2023-03-20T09:59:39;12.00;80.30
42147;DHT22;27815;43.410;11.852;2023-03-20T10:03:58;12.00;80.10
42147;DHT22;27815;43.410;11.852;2023-03-20T10:08:06;12.00;79.90
42147;DHT22;27815;43.410;11.852;2023-03-20T10:17:03;12.10;79.80
42147;DHT22;27815;43.410;11.852;2023-03-20T10:21:16;12.10;79.50
42147;DHT22;27815;43.410;11.852;2023-03-20T10:38:15;12.50;78.90
42147;DHT22;27815;43.410;11.852;2023-03-20T10:42:23;12.60;78.70
42147;DHT22;27815;43.410;11.852;2023-03-20T10:46:31;12.70;78.50
42147;DHT22;27815;43.410;11.852;2023-03-20T10:50:47;12.90;78.00
42147;DHT22;27815;43.410;11.852;2023-03-20T10:54:58;13.10;77.60
42147;DHT22;27815;43.410;11.852;2023-03-20T10:59:20;13.30;77.30
42147;DHT22;27815;43.410;11.852;2023-03-20T11:03:31;13.60;76.90
42147;DHT22;27815;43.410;11.852;2023-03-20T11:08:10;13.80;76.40
42147;DHT22;27815;43.410;11.852;2023-03-20T11:12:35;14.00;76.00
42147;DHT22;27815;43.410;11.852;2023-03-20T11:16:46;14.00;76.10
42147;DHT22;27815;43.410;11.852;2023-03-20T11:21:03;14.00;76.00
42147;DHT22;27815;43.410;11.852;2023-03-20T11:25:37;14.00;75.70
42147;DHT22;27815;43.410;11.852;2023-03-20T11:29:55;14.10;75.30
42147;DHT22;27815;43.410;11.852;2023-03-20T11:38:38;14.50;74.10
42147;DHT22;27815;43.410;11.852;2023-03-20T11:43:09;14.70;73.80
42147;DHT22;27815;43.410;11.852;2023-03-20T11:47:27;14.90;73.60
42147;DHT22;27815;43.410;11.852;2023-03-20T11:51:36;15.00;73.20
42147;DHT22;27815;43.410;11.852;2023-03-20T11:56:10;14.80;72.90
42147;DHT22;27815;43.410;11.852;2023-03-20T12:00:40;14.80;73.30
42147;DHT22;27815;43.410;11.852;2023-03-20T12:05:01;15.00;73.20
42147;DHT22;27815;43.410;11.852;2023-03-20T12:09:24;15.00;72.70
42147;DHT22;27815;43.410;11.852;2023-03-20T12:13:43;15.10;72.80
42147;DHT22;27815;43.410;11.852;2023-03-20T12:18:46;15.20;72.60
42147;DHT22;27815;43.410;11.852;2023-03-20T12:22:59;15.20;72.30
42147;DHT22;27815;43.410;11.852;2023-03-20T12:27:35;15.10;72.00
42147;DHT22;27815;43.410;11.852;2023-03-20T12:32:19;15.10;71.50
42147;DHT22;27815;43.410;11.852;2023-03-20T12:36:39;15.10;71.40
42147;DHT22;27815;43.410;11.852;2023-03-20T12:46:32;15.30;71.00
42147;DHT22;27815;43.410;11.852;2023-03-20T12:50:53;15.30;70.90
42147;DHT22;27815;43.410;11.852;2023-03-20T12:55:26;15.30;70.80
42147;DHT22;27815;43.410;11.852;2023-03-20T13:10:04;15.60;70.40
42147;DHT22;27815;43.410;11.852;2023-03-20T16:27:13;15.20;65.70
42147;DHT22;27815;43.410;11.852;2023-03-20T16:32:33;15.10;65.80
42147;DHT22;27815;43.410;11.852;2023-03-20T23:11:41;10.00;73.40
